Taasinge Maersk — OUSX2 — position and weather

sailwx.info

Track history (hours):
 
Tides and Currents Weather Stations Pressure Air Temp Water Temp Dewpoint Dewpoint Depression Visibility Wind Speed Wind Dir Waves Ship Positions

Taasinge Maersk

Last reported at 2017-Mar-26 04:20 UTC. Time now 2017-Mar-27 22:12 UTC.
Position N 13°54' W 017°10'.

; draft 7 m.

Type: Ship (hazmat cat A). MMSI: 220157000.

Date/timePositionNaut miles runAvg speedWind from/ knotsBaromVisibWave heightAir tempDewpointWater temp
2017-Mar-26 04:20N 13°54' W 017°10'6 7.7
2017-Mar-26 03:32N 13°59' W 017°13'8 7.7
2017-Mar-26 02:33N 14°06' W 017°18'9 7.5
2017-Mar-26 01:19N 14°13' W 017°23'  
2017-Mar-20 15:19N 35°52' W 005°60'1414.2
2017-Mar-20 14:20N 35°57' W 005°43'1114.0
2017-Mar-20 13:33N 35°59' W 005°30'8 8.2
2017-Mar-20 12:31N 36°06' W 005°24'0 0.1
2017-Mar-20 11:33N 36°06' W 005°24'0 0.0
2017-Mar-20 10:33N 36°06' W 005°24'0 0.3
2017-Mar-20 09:33N 36°06' W 005°24'0 0.1
2017-Mar-20 08:33N 36°06' W 005°24'0 0.0
2017-Mar-20 07:33N 36°06' W 005°24'0 0.1
2017-Mar-20 06:33N 36°06' W 005°24'0 0.4
2017-Mar-20 05:33N 36°06' W 005°24'3 2.5
2017-Mar-20 04:32N 36°08' W 005°26'0 0.0
2017-Mar-20 03:32N 36°08' W 005°26'0 0.0
2017-Mar-20 02:32N 36°08' W 005°26'0 0.0
2017-Mar-20 01:32N 36°08' W 005°26'0 0.0
2017-Mar-20 00:32N 36°08' W 005°26'0 0.0
2017-Mar-19 23:32N 36°08' W 005°26'0 0.0
2017-Mar-19 22:32N 36°08' W 005°26'0 0.0
2017-Mar-19 21:32N 36°08' W 005°26'0 0.0
2017-Mar-19 20:32N 36°08' W 005°26'0 0.0
2017-Mar-19 19:32N 36°08' W 005°26'0 0.0
2017-Mar-19 18:32N 36°08' W 005°26'0 0.0
2017-Mar-19 17:32N 36°08' W 005°26'0 0.0
2017-Mar-19 16:33N 36°08' W 005°26'0 0.0
2017-Mar-19 15:32N 36°08' W 005°26'0 0.0
2017-Mar-19 14:32N 36°08' W 005°26'0 0.0
2017-Mar-19 13:32N 36°08' W 005°26'0 0.1
2017-Mar-19 12:33N 36°08' W 005°26'2 2.2
2017-Mar-19 11:34N 36°07' W 005°24'9 9.1
2017-Mar-19 10:33N 35°58' W 005°25'6 5.6
2017-Mar-19 09:25N 35°53' W 005°30'0 0.0
2017-Mar-19 08:28N 35°53' W 005°30'0 0.0
2017-Mar-19 07:32N 35°53' W 005°30'0 0.0
2017-Mar-19 06:32N 35°53' W 005°30'0 0.0
2017-Mar-19 05:32N 35°53' W 005°30'0 0.0
2017-Mar-19 04:31N 35°53' W 005°30'0 0.0
2017-Mar-19 03:31N 35°53' W 005°30'0 0.0
2017-Mar-19 02:32N 35°53' W 005°30'0 0.0
2017-Mar-19 01:31N 35°53' W 005°30'0 0.0
2017-Mar-19 00:29N 35°53' W 005°30'0 0.0
2017-Mar-18 23:29N 35°53' W 005°30'0 0.0
2017-Mar-18 22:13N 35°53' W 005°30'0 0.0
2017-Mar-18 21:28N 35°53' W 005°30'0 0.0
2017-Mar-18 20:29N 35°53' W 005°30'0 0.0
2017-Mar-18 19:31N 35°53' W 005°30'0 0.0
2017-Mar-18 18:29N 35°53' W 005°30'0 0.0
2017-Mar-18 17:28N 35°53' W 005°30'0 0.0
2017-Mar-18 16:31N 35°53' W 005°30'0 0.0
2017-Mar-18 15:33N 35°53' W 005°30'2 2.2
2017-Mar-18 14:33N 35°55' W 005°32'3 3.0
2017-Mar-18 13:33N 35°54' W 005°36'5 5.2
2017-Mar-18 12:33N 35°53' W 005°42'6 6.4
2017-Mar-18 11:32N 35°53' W 005°50'  
Track history (hours):
 
Tides and Currents Weather Stations Pressure Air Temp Water Temp Dewpoint Dewpoint Depression Visibility Wind Speed Wind Dir Waves Ship Positions

Taasinge Maersk

Last reported at 2017-Mar-26 04:20 UTC. Time now 2017-Mar-27 22:12 UTC.
Position N 13°54' W 017°10'.

; draft 7 m.

Type: Ship (hazmat cat A). MMSI: 220157000.

Date/timePositionNaut miles runAvg speedWind from/ knotsBaromVisibWave heightAir tempDewpointWater temp
2017-Mar-26 04:20N 13°54' W 017°10'6 7.7
2017-Mar-26 03:32N 13°59' W 017°13'8 7.7
2017-Mar-26 02:33N 14°06' W 017°18'9 7.5
2017-Mar-26 01:19N 14°13' W 017°23'  
2017-Mar-20 15:19N 35°52' W 005°60'1414.2
2017-Mar-20 14:20N 35°57' W 005°43'1114.0
2017-Mar-20 13:33N 35°59' W 005°30'8 8.2
2017-Mar-20 12:31N 36°06' W 005°24'0 0.1
2017-Mar-20 11:33N 36°06' W 005°24'0 0.0
2017-Mar-20 10:33N 36°06' W 005°24'0 0.3
2017-Mar-20 09:33N 36°06' W 005°24'0 0.1
2017-Mar-20 08:33N 36°06' W 005°24'0 0.0
2017-Mar-20 07:33N 36°06' W 005°24'0 0.1
2017-Mar-20 06:33N 36°06' W 005°24'0 0.4
2017-Mar-20 05:33N 36°06' W 005°24'3 2.5
2017-Mar-20 04:32N 36°08' W 005°26'0 0.0
2017-Mar-20 03:32N 36°08' W 005°26'0 0.0
2017-Mar-20 02:32N 36°08' W 005°26'0 0.0
2017-Mar-20 01:32N 36°08' W 005°26'0 0.0
2017-Mar-20 00:32N 36°08' W 005°26'0 0.0
2017-Mar-19 23:32N 36°08' W 005°26'0 0.0
2017-Mar-19 22:32N 36°08' W 005°26'0 0.0
2017-Mar-19 21:32N 36°08' W 005°26'0 0.0
2017-Mar-19 20:32N 36°08' W 005°26'0 0.0
2017-Mar-19 19:32N 36°08' W 005°26'0 0.0
2017-Mar-19 18:32N 36°08' W 005°26'0 0.0
2017-Mar-19 17:32N 36°08' W 005°26'0 0.0
2017-Mar-19 16:33N 36°08' W 005°26'0 0.0
2017-Mar-19 15:32N 36°08' W 005°26'0 0.0
2017-Mar-19 14:32N 36°08' W 005°26'0 0.0
2017-Mar-19 13:32N 36°08' W 005°26'0 0.1
2017-Mar-19 12:33N 36°08' W 005°26'2 2.2
2017-Mar-19 11:34N 36°07' W 005°24'9 9.1
2017-Mar-19 10:33N 35°58' W 005°25'6 5.6
2017-Mar-19 09:25N 35°53' W 005°30'0 0.0
2017-Mar-19 08:28N 35°53' W 005°30'0 0.0
2017-Mar-19 07:32N 35°53' W 005°30'0 0.0
2017-Mar-19 06:32N 35°53' W 005°30'0 0.0
2017-Mar-19 05:32N 35°53' W 005°30'0 0.0
2017-Mar-19 04:31N 35°53' W 005°30'0 0.0
2017-Mar-19 03:31N 35°53' W 005°30'0 0.0
2017-Mar-19 02:32N 35°53' W 005°30'0 0.0
2017-Mar-19 01:31N 35°53' W 005°30'0 0.0
2017-Mar-19 00:29N 35°53' W 005°30'0 0.0
2017-Mar-18 23:29N 35°53' W 005°30'0 0.0
2017-Mar-18 22:13N 35°53' W 005°30'0 0.0
2017-Mar-18 21:28N 35°53' W 005°30'0 0.0
2017-Mar-18 20:29N 35°53' W 005°30'0 0.0
2017-Mar-18 19:31N 35°53' W 005°30'0 0.0
2017-Mar-18 18:29N 35°53' W 005°30'0 0.0
2017-Mar-18 17:28N 35°53' W 005°30'0 0.0
2017-Mar-18 16:31N 35°53' W 005°30'0 0.0
2017-Mar-18 15:33N 35°53' W 005°30'2 2.2
2017-Mar-18 14:33N 35°55' W 005°32'3 3.0
2017-Mar-18 13:33N 35°54' W 005°36'5 5.2
2017-Mar-18 12:33N 35°53' W 005°42'6 6.4
2017-Mar-18 11:32N 35°53' W 005°50'  

Dump ship's entire track history